Share

Morris, MN

Morris Municipal (KMOX) Elev 1129 ft | 45.57 °N, 95.97 °W | Change Station

Current weather conditions updated 11 minutes ago

Clear
Clear
27 °F
Feels Like 16 °F
N
13
Wind Variable Wind from North
Sunrise 6:34 AM
Sunset 8:12 PM
Moon Waning Gibbous

Today is forecast to be nearly the same temperature as yesterday.

Pressure 30.15 in
Visibility 10.0 miles
Clouds Clear
Windchill 16 °F
Dew Point 19 °F
Humidity 74%
Rainfall 0.04 in
Snow Depth Not available.
UV 0 out of 16
Pollen 1.00 out of 12
Air Quality Not available.
Flu Activity Sporadic
METAR KMOX 170451Z AUTO 01011KT 10SM CLR M03/M07 A3015 RMK AO2

More Conditions Fewer Conditions

Pressure 30.15 in
Visibility 10.0 miles
Clouds Clear
Windchill 16 °F
Dew Point 19 °F
Humidity 74%
Rainfall 0.04 in
Snow Depth Not available.
UV 0 out of 16
Pollen 1.00 out of 12
Air Quality Not available.
Flu Activity Sporadic
METAR KMOX 170451Z AUTO 01011KT 10SM CLR M03/M07 A3015 RMK AO2

More Conditions Fewer Conditions

10-Day Forecast

Almanac

Astronomy

Apr. 17, 2014 Rise Set
Actual Time 6:34 AM CDT 8:12 PM CDT
Civil Twilight 6:03 AM CDT 8:44 PM CDT
Nautical Twilight 5:25 AM CDT 9:22 PM CDT
Astronomical Twilight 4:44 AM CDT 10:03 PM CDT
Moon 11:05 PM CDT 8:01 AM CDT
Length of Visible Light 14h 40m
Length of Day
13h 38m
Tomorrow will be 3m 3s longer.
Waning Gibbous, 96% of the Moon is Illuminated
Today
Waning Gibbous
Apr 22
Last Quarter
Apr 29
New
May 6
First Quarter
May 14
Full

Today's Extremes

State Highs State Lows

Community

  • symphony in blue....
    symphony in blue....
  • Dawn Surprise
    Dawn Surprise
  • Yucca delight
    Yucca delight
  • Sunset inside of the Ocean
    Sunset inside of the Ocean
  • Lunar eclipse 15 April 2014
    Lunar eclipse 15 April 2014

WunderPhotos

Upload Photos

1,701,858 photos uploaded!

WunderBlogs® & News

Nearby

Snow Depth

Station Depth Elevation
No new snow has been reported.

Coastal Water Temperatures

Place Temperature
No Stations Reporting

Earthquake Activity

City Distance Mag. Time & Date
No recent earthquake activity has been reported nearby.
Minimum magnitude displayed is 2.5.

Nearby Weather Stations

There are no personal weather stations in this area.

What do you think?

We're not finished. Please let us know what you like, what you don't like, and what you are still missing.